createdAt,value
2018-06-19T00:01:24.785Z,13.00
2018-06-19T00:03:56.585Z,12.17
2018-06-19T00:06:28.229Z,10.40
2018-06-19T00:09:02.676Z,12.37
2018-06-19T00:11:34.421Z,11.57
2018-06-19T00:14:05.989Z,8.97
2018-06-19T00:16:37.159Z,11.03
2018-06-19T00:19:10.814Z,15.73
2018-06-19T00:21:51.722Z,11.10
2018-06-19T00:24:23.985Z,10.33
2018-06-19T00:26:57.110Z,11.63
2018-06-19T00:29:28.617Z,9.87
2018-06-19T00:32:00.416Z,10.47
2018-06-19T00:34:34.229Z,13.17
2018-06-19T00:37:06.806Z,13.07
2018-06-19T00:39:39.281Z,16.77
2018-06-19T00:42:10.964Z,9.73
2018-06-19T00:44:45.181Z,9.90
2018-06-19T00:47:16.961Z,10.63
2018-06-19T00:49:48.957Z,10.00
2018-06-19T00:52:20.503Z,9.40
2018-06-19T00:54:53.355Z,13.20
2018-06-19T00:57:24.883Z,9.60
2018-06-19T00:59:57.207Z,10.93
2018-06-19T01:02:29.281Z,10.57
2018-06-19T01:05:02.679Z,10.97
2018-06-19T01:07:35.996Z,11.10
2018-06-19T01:10:07.404Z,11.67
2018-06-19T01:12:39.908Z,11.97
2018-06-19T01:15:11.062Z,12.20
2018-06-19T01:17:47.505Z,13.90
2018-06-19T01:20:23.603Z,12.97
2018-06-19T01:22:57.409Z,14.20
2018-06-19T01:25:28.685Z,13.13
2018-06-19T01:28:00.170Z,13.23
2018-06-19T01:30:31.215Z,13.03
2018-06-19T01:33:02.713Z,12.93
2018-06-19T01:35:36.316Z,12.43
2018-06-19T01:38:08.665Z,13.07
2018-06-19T01:40:40.085Z,12.53
2018-06-19T01:43:12.746Z,13.77
2018-06-19T01:45:44.866Z,12.50
2018-06-19T01:48:17.399Z,11.90
2018-06-19T01:50:49.881Z,13.47
2018-06-19T01:53:22.028Z,12.77
2018-06-19T01:55:54.702Z,11.90
2018-06-19T01:58:26.935Z,11.27
2018-06-19T02:00:58.725Z,12.00
2018-06-19T02:03:30.845Z,11.77
2018-06-19T02:06:03.202Z,11.47
2018-06-19T02:08:34.492Z,11.50
2018-06-19T02:11:06.020Z,12.67
2018-06-19T02:13:38.147Z,12.43
2018-06-19T02:16:09.831Z,12.43
2018-06-19T02:18:43.920Z,12.13
2018-06-19T02:21:15.471Z,12.93
2018-06-19T02:23:47.320Z,13.13
2018-06-19T02:26:19.500Z,13.10
2018-06-19T02:28:51.057Z,12.53
2018-06-19T02:31:23.658Z,12.77
2018-06-19T02:33:55.295Z,14.40
2018-06-19T02:36:26.729Z,12.33
2018-06-19T02:38:59.253Z,13.40
2018-06-19T02:41:31.568Z,13.93
2018-06-19T02:44:02.859Z,12.10
2018-06-19T02:46:34.720Z,13.43
2018-06-19T02:49:09.023Z,12.70
2018-06-19T02:51:40.455Z,13.50
2018-06-19T02:54:12.517Z,14.03
2018-06-19T02:56:43.696Z,13.47
2018-06-19T02:59:16.076Z,13.07
2018-06-19T03:01:48.242Z,11.73
2018-06-19T03:04:20.059Z,12.20
2018-06-19T03:06:51.251Z,12.33
2018-06-19T03:09:24.162Z,11.00
2018-06-19T03:11:56.265Z,11.83
2018-06-19T03:14:27.526Z,12.83
2018-06-19T03:16:59.939Z,10.47
2018-06-19T03:19:34.925Z,9.70
2018-06-19T03:22:06.529Z,9.67
2018-06-19T03:24:41.042Z,13.07
2018-06-19T03:27:12.602Z,16.23
2018-06-19T03:29:44.156Z,12.73
2018-06-19T03:32:16.151Z,14.37
2018-06-19T03:34:48.038Z,12.27
2018-06-19T03:37:19.953Z,11.63
2018-06-19T03:39:52.117Z,11.27
2018-06-19T03:42:24.459Z,9.97
2018-06-19T03:44:57.170Z,8.53
2018-06-19T03:47:29.402Z,9.20
2018-06-19T03:50:00.412Z,8.40
2018-06-19T03:52:31.299Z,9.23
2018-06-19T03:55:02.388Z,8.23
2018-06-19T03:57:33.798Z,10.03
2018-06-19T04:00:04.933Z,10.37
2018-06-19T04:02:36.025Z,9.30
2018-06-19T04:05:06.988Z,10.00
2018-06-19T04:07:37.902Z,9.73
2018-06-19T04:10:08.929Z,13.87
2018-06-19T04:12:41.107Z,12.57
2018-06-19T04:15:12.409Z,12.17
2018-06-19T04:17:43.512Z,12.07
2018-06-19T04:20:15.036Z,16.03
2018-06-19T04:22:46.209Z,9.40
2018-06-19T04:25:16.593Z,8.70
2018-06-19T04:27:47.799Z,7.80
2018-06-19T04:30:18.783Z,7.80
2018-06-19T04:32:49.995Z,8.40
2018-06-19T04:35:22.562Z,9.87
2018-06-19T04:37:53.894Z,10.87
2018-06-19T04:40:25.985Z,12.43
2018-06-19T04:42:57.340Z,14.03
2018-06-19T04:45:29.105Z,14.53
2018-06-19T04:48:01.355Z,10.73
2018-06-19T04:50:33.227Z,10.30
2018-06-19T04:53:05.552Z,10.13
2018-06-19T04:55:37.006Z,14.43
2018-06-19T04:58:08.269Z,9.40
2018-06-19T05:00:39.168Z,9.53
2018-06-19T05:03:10.569Z,9.77
2018-06-19T05:05:41.655Z,9.63
2018-06-19T05:08:12.525Z,10.33
2018-06-19T05:10:44.241Z,10.07
2018-06-19T05:13:15.225Z,9.67
2018-06-19T05:15:46.589Z,12.10
2018-06-19T05:18:19.397Z,9.17
2018-06-19T05:20:50.592Z,8.73
2018-06-19T05:23:23.405Z,8.30
2018-06-19T05:25:54.532Z,11.07
2018-06-19T05:28:25.663Z,8.93
2018-06-19T05:30:56.878Z,8.83
2018-06-19T05:33:28.693Z,8.13
2018-06-19T05:36:01.059Z,8.53
2018-06-19T05:38:33.192Z,8.43
2018-06-19T05:41:04.325Z,9.33
2018-06-19T05:43:35.811Z,8.80
2018-06-19T05:46:07.208Z,8.83
2018-06-19T05:48:38.383Z,8.67
2018-06-19T05:51:10.180Z,8.40
2018-06-19T05:53:41.145Z,8.40
2018-06-19T05:56:12.556Z,9.00
2018-06-19T05:58:44.815Z,9.07
2018-06-19T06:01:15.839Z,8.00
2018-06-19T06:03:47.235Z,9.33
2018-06-19T06:06:18.943Z,10.40
2018-06-19T06:08:50.165Z,10.23
2018-06-19T06:11:21.454Z,9.47
2018-06-19T06:13:52.538Z,10.00
2018-06-19T06:16:24.188Z,8.63
2018-06-19T06:18:55.337Z,10.93
2018-06-19T06:21:26.542Z,8.97
2018-06-19T06:23:57.664Z,9.67
2018-06-19T06:26:28.859Z,15.80
2018-06-19T06:29:00.539Z,10.33
2018-06-19T06:31:31.891Z,10.87
2018-06-19T06:34:04.191Z,7.23
2018-06-19T06:36:35.589Z,7.63
2018-06-19T06:39:11.055Z,6.57
2018-06-19T06:41:43.277Z,6.63
2018-06-19T06:44:15.196Z,8.10
2018-06-19T06:46:47.048Z,5.43
2018-06-19T06:49:19.349Z,7.77
2018-06-19T06:51:50.669Z,8.13
2018-06-19T06:54:23.099Z,5.27
2018-06-19T06:56:58.659Z,4.70
2018-06-19T06:59:30.709Z,6.63
2018-06-19T07:02:02.368Z,9.67
2018-06-19T07:04:34.699Z,8.13
2018-06-19T07:07:06.322Z,5.80
2018-06-19T07:09:38.492Z,4.07
2018-06-19T07:12:09.611Z,4.83
2018-06-19T07:14:40.090Z,5.30
2018-06-19T07:17:11.712Z,6.60
2018-06-19T07:19:42.834Z,5.43
2018-06-19T07:22:14.340Z,5.40
2018-06-19T07:24:46.188Z,5.10
2018-06-19T07:27:17.861Z,8.87
2018-06-19T07:29:50.481Z,8.30
2018-06-19T07:32:22.156Z,6.23
2018-06-19T07:34:54.301Z,4.47
2018-06-19T07:37:26.308Z,3.77
2018-06-19T07:39:58.675Z,4.33
2018-06-19T07:42:30.039Z,4.73
2018-06-19T07:45:01.576Z,3.53
2018-06-19T07:47:34.675Z,5.37
2018-06-19T07:50:06.784Z,8.20
2018-06-19T07:52:39.386Z,3.73
2018-06-19T07:55:10.674Z,3.70
2018-06-19T07:57:41.930Z,4.80
2018-06-19T08:00:13.657Z,3.80
2018-06-19T08:02:44.986Z,3.90
2018-06-19T08:05:16.941Z,6.73
2018-06-19T08:07:50.090Z,5.10
2018-06-19T08:10:23.028Z,3.43
2018-06-19T08:12:54.346Z,4.80
2018-06-19T08:15:28.690Z,9.97
2018-06-19T08:18:00.566Z,8.13
2018-06-19T08:20:32.494Z,3.87
2018-06-19T08:23:04.360Z,9.63
2018-06-19T08:25:35.716Z,8.03
2018-06-19T08:28:06.945Z,8.10
2018-06-19T08:30:38.449Z,5.07
2018-06-19T08:33:12.058Z,5.57
2018-06-19T08:35:44.489Z,6.23
2018-06-19T08:38:19.269Z,4.03
2018-06-19T08:40:51.156Z,4.07
2018-06-19T08:43:23.428Z,6.17
2018-06-19T08:45:56.658Z,3.30
2018-06-19T08:48:28.329Z,3.77
2018-06-19T08:50:59.640Z,4.17
2018-06-19T08:53:32.209Z,5.10
2018-06-19T08:56:07.222Z,4.70
2018-06-19T08:58:40.855Z,5.50
2018-06-19T09:01:12.043Z,3.00
2018-06-19T09:03:43.141Z,8.03
2018-06-19T09:06:17.008Z,3.83
2018-06-19T09:08:51.122Z,3.40
2018-06-19T09:11:24.323Z,5.77
2018-06-19T09:13:55.667Z,5.37
2018-06-19T09:16:26.786Z,3.57
2018-06-19T09:18:58.588Z,6.27
2018-06-19T09:21:30.077Z,3.93
2018-06-19T09:24:07.832Z,4.83
2018-06-19T09:26:40.064Z,4.40
2018-06-19T09:29:11.241Z,5.00
2018-06-19T09:31:43.317Z,4.83
2018-06-19T09:34:14.612Z,4.77
2018-06-19T09:36:46.790Z,7.80
2018-06-19T09:39:21.710Z,4.77
2018-06-19T09:41:53.167Z,4.27
2018-06-19T09:44:25.010Z,4.77
2018-06-19T09:47:02.179Z,3.03
2018-06-19T09:49:33.804Z,4.00
2018-06-19T09:52:06.831Z,6.90
2018-06-19T09:54:41.415Z,3.23
2018-06-19T09:57:12.899Z,6.20
2018-06-19T09:59:44.640Z,6.93
2018-06-19T10:02:17.123Z,6.27
2018-06-19T10:04:48.559Z,4.43
2018-06-19T10:07:22.775Z,4.60
2018-06-19T10:09:54.757Z,4.50
2018-06-19T10:12:25.487Z,4.07
2018-06-19T10:14:56.608Z,2.90
2018-06-19T10:17:28.591Z,3.33
2018-06-19T10:20:00.000Z,2.37
2018-06-19T10:22:31.838Z,4.17
2018-06-19T10:25:03.591Z,3.83
2018-06-19T10:27:35.017Z,2.97
2018-06-19T10:30:08.068Z,7.50
2018-06-19T10:32:42.416Z,3.27
2018-06-19T10:35:14.861Z,4.77
2018-06-19T10:37:46.594Z,4.90
2018-06-19T10:40:17.868Z,3.50
2018-06-19T10:42:49.192Z,4.43
2018-06-19T10:45:20.339Z,2.13
2018-06-19T10:47:52.590Z,4.37
2018-06-19T10:50:24.012Z,2.30
2018-06-19T10:52:55.809Z,3.20
2018-06-19T10:55:27.974Z,3.10
2018-06-19T10:58:00.141Z,2.37
2018-06-19T11:00:31.822Z,4.20
2018-06-19T11:03:04.448Z,7.90
2018-06-19T11:05:36.438Z,4.40
2018-06-19T11:08:08.496Z,3.17
2018-06-19T11:10:39.731Z,5.87
2018-06-19T11:13:11.199Z,5.60
2018-06-19T11:15:42.213Z,6.10
2018-06-19T11:18:13.268Z,4.83
2018-06-19T11:20:44.477Z,6.30
2018-06-19T11:23:16.551Z,7.17
2018-06-19T11:25:47.917Z,3.13
2018-06-19T11:28:19.477Z,3.57
2018-06-19T11:30:50.827Z,3.17
2018-06-19T11:33:22.949Z,2.40
2018-06-19T11:35:54.193Z,5.67
2018-06-19T11:38:27.305Z,2.13
2018-06-19T11:40:59.303Z,2.00
2018-06-19T11:43:30.853Z,3.47
2018-06-19T11:46:02.101Z,2.73
2018-06-19T11:48:33.855Z,2.80
2018-06-19T11:51:06.351Z,2.73
2018-06-19T11:53:42.092Z,2.70
2018-06-19T11:56:14.828Z,2.60
2018-06-19T11:58:46.902Z,4.10
2018-06-19T12:01:19.001Z,4.37
2018-06-19T12:03:50.950Z,4.20
2018-06-19T12:06:23.009Z,3.57
2018-06-19T12:08:54.978Z,2.83
2018-06-19T12:11:29.550Z,2.83
2018-06-19T12:14:01.246Z,3.20
2018-06-19T12:16:32.932Z,2.07
2018-06-19T12:19:04.230Z,3.20
2018-06-19T12:21:35.545Z,2.10
2018-06-19T12:24:07.783Z,4.30
2018-06-19T12:26:39.707Z,5.07
2018-06-19T12:29:12.647Z,2.13
2018-06-19T12:31:44.077Z,2.80
2018-06-19T12:34:17.797Z,3.17
2018-06-19T12:36:49.139Z,3.13
2018-06-19T12:39:20.362Z,3.03
2018-06-19T12:41:51.949Z,4.27
2018-06-19T12:44:25.072Z,2.67
2018-06-19T12:46:59.404Z,2.40
2018-06-19T12:51:03.295Z,3.53
2018-06-19T12:53:54.525Z,5.07
2018-06-19T12:56:26.197Z,4.70
2018-06-19T12:58:58.115Z,2.90
2018-06-19T13:01:29.751Z,6.23
2018-06-19T13:04:17.519Z,5.60
2018-06-19T13:06:49.245Z,2.60
2018-06-19T13:09:21.541Z,3.07
2018-06-19T13:11:55.509Z,5.33
2018-06-19T13:14:40.298Z,2.47
2018-06-19T13:17:27.654Z,4.57
2018-06-19T13:20:15.535Z,2.60
2018-06-19T13:22:47.584Z,4.00
2018-06-19T13:25:19.102Z,2.60
2018-06-19T13:27:51.599Z,2.23
2018-06-19T13:30:39.139Z,3.17
2018-06-19T13:33:10.748Z,2.67
2018-06-19T13:35:43.634Z,4.47
2018-06-19T13:38:16.242Z,3.03
2018-06-19T13:41:18.649Z,2.43
2018-06-19T13:44:09.479Z,4.77
2018-06-19T13:46:42.080Z,3.13
2018-06-19T13:49:15.019Z,3.30
2018-06-19T13:51:46.920Z,2.00
2018-06-19T13:54:18.200Z,3.17
2018-06-19T13:57:27.998Z,3.03
2018-06-19T14:00:01.288Z,9.13
2018-06-19T14:02:32.750Z,2.90
2018-06-19T14:05:04.457Z,4.27
2018-06-19T14:07:43.005Z,2.20
2018-06-19T14:10:32.074Z,2.73
2018-06-19T14:13:03.597Z,3.90
2018-06-19T14:15:38.679Z,8.27
2018-06-19T14:18:10.738Z,4.77
2018-06-19T14:20:43.105Z,3.23
2018-06-19T14:23:16.324Z,5.43
2018-06-19T14:25:47.901Z,3.07
2018-06-19T14:28:25.435Z,3.57
2018-06-19T14:30:57.164Z,2.63
2018-06-19T14:33:29.417Z,4.87
2018-06-19T14:36:00.792Z,4.53
2018-06-19T14:38:32.007Z,2.73
2018-06-19T14:41:03.983Z,2.00
2018-06-19T14:43:35.601Z,4.53
2018-06-19T14:46:06.866Z,3.47
2018-06-19T14:48:38.527Z,2.10
2018-06-19T14:51:10.288Z,4.97
2018-06-19T14:53:41.881Z,2.23
2018-06-19T14:56:14.969Z,2.07
2018-06-19T14:58:45.958Z,3.50
2018-06-19T15:01:17.335Z,8.33
2018-06-19T15:03:48.622Z,2.50
2018-06-19T15:06:20.945Z,3.67
2018-06-19T15:08:53.251Z,3.30
2018-06-19T15:11:25.886Z,3.87
2018-06-19T15:13:58.399Z,4.10
2018-06-19T15:16:30.052Z,2.10
2018-06-19T15:19:02.125Z,3.40
2018-06-19T15:21:34.633Z,2.93
2018-06-19T15:24:05.980Z,3.90
2018-06-19T15:26:38.056Z,2.37
2018-06-19T15:29:09.875Z,5.10
2018-06-19T15:31:42.284Z,3.50
2018-06-19T15:34:15.239Z,5.43
2018-06-19T15:36:48.334Z,5.73
2018-06-19T15:39:20.018Z,4.10
2018-06-19T15:41:51.499Z,2.53
2018-06-19T15:44:24.005Z,4.23
2018-06-19T15:46:56.242Z,6.47
2018-06-19T15:49:27.459Z,3.10
2018-06-19T15:52:00.572Z,3.20
2018-06-19T15:54:33.747Z,3.93
2018-06-19T15:57:05.009Z,4.07
2018-06-19T15:59:36.248Z,7.63
2018-06-19T16:02:07.696Z,4.50
2018-06-19T16:04:38.998Z,5.27
2018-06-19T16:07:10.637Z,4.67
2018-06-19T16:09:42.613Z,2.43
2018-06-19T16:12:13.758Z,4.97
2018-06-19T16:14:45.152Z,3.13
2018-06-19T16:17:16.659Z,4.57
2018-06-19T16:19:48.208Z,3.60
2018-06-19T16:22:19.353Z,4.13
2018-06-19T16:24:50.549Z,3.90
2018-06-19T16:27:23.751Z,5.97
2018-06-19T16:29:55.173Z,2.80
2018-06-19T16:32:26.473Z,3.10
2018-06-19T16:34:57.684Z,6.83
2018-06-19T16:37:29.904Z,6.87
2018-06-19T16:40:01.226Z,7.47
2018-06-19T16:42:33.922Z,5.80
2018-06-19T16:45:05.362Z,4.60
2018-06-19T16:47:36.806Z,4.40
2018-06-19T16:50:08.102Z,4.10
2018-06-19T16:52:39.479Z,5.20
2018-06-19T16:55:10.742Z,3.40
2018-06-19T16:57:42.186Z,6.80
2018-06-19T17:00:14.510Z,4.33
2018-06-19T17:02:45.428Z,3.17
2018-06-19T17:05:16.402Z,6.30
2018-06-19T17:07:47.527Z,3.23
2018-06-19T17:10:18.762Z,4.67
2018-06-19T17:12:50.606Z,5.10
2018-06-19T17:15:21.819Z,5.53
2018-06-19T17:17:53.606Z,4.77
2018-06-19T17:20:24.272Z,4.70
2018-06-19T17:22:55.453Z,5.67
2018-06-19T17:25:26.620Z,4.53
2018-06-19T17:27:57.787Z,9.30
2018-06-19T17:30:30.014Z,7.30
2018-06-19T17:33:02.660Z,5.53
2018-06-19T17:35:34.763Z,3.40
2018-06-19T17:38:06.415Z,6.17
2018-06-19T17:40:38.115Z,3.90
2018-06-19T17:43:10.206Z,4.23
2018-06-19T17:45:44.248Z,7.60
2018-06-19T17:48:16.779Z,8.73
2018-06-19T17:50:48.861Z,3.00
2018-06-19T17:53:20.946Z,5.40
2018-06-19T17:55:53.061Z,6.93
2018-06-19T17:58:25.654Z,3.37
2018-06-19T18:00:58.340Z,7.80
2018-06-19T18:03:32.086Z,7.23
2018-06-19T18:06:04.673Z,4.80
2018-06-19T18:08:38.225Z,6.70
2018-06-19T18:11:11.074Z,4.50
2018-06-19T18:13:44.383Z,5.60
2018-06-19T18:16:17.705Z,5.47
2018-06-19T18:18:50.469Z,3.63
2018-06-19T18:21:23.036Z,3.73
2018-06-19T18:23:56.129Z,2.80
2018-06-19T18:26:28.892Z,3.73
2018-06-19T18:29:02.209Z,4.03
2018-06-19T18:31:35.640Z,4.13
2018-06-19T18:34:08.976Z,6.83
2018-06-19T18:36:40.591Z,9.77
2018-06-19T18:39:13.754Z,4.07
2018-06-19T18:41:47.490Z,6.97
2018-06-19T18:44:21.061Z,3.73
2018-06-19T18:46:54.240Z,5.37
2018-06-19T18:49:27.484Z,5.27
2018-06-19T18:52:00.253Z,3.87
2018-06-19T18:54:34.196Z,8.30
2018-06-19T18:57:07.839Z,6.60
2018-06-19T18:59:42.096Z,6.13
2018-06-19T19:02:15.136Z,7.33
2018-06-19T19:04:49.168Z,8.73
2018-06-19T19:07:22.027Z,5.17
2018-06-19T19:09:59.047Z,5.00
2018-06-19T19:12:33.286Z,2.93
2018-06-19T19:15:11.056Z,3.33
2018-06-19T19:17:47.995Z,5.33
2018-06-19T19:20:23.345Z,5.93
2018-06-19T19:22:57.000Z,4.90
2018-06-19T19:25:31.717Z,4.20
2018-06-19T19:29:09.314Z,6.43
2018-06-19T19:31:44.270Z,5.83
2018-06-19T19:34:18.640Z,5.37
2018-06-19T19:36:56.795Z,4.53
2018-06-19T19:39:31.598Z,3.47
2018-06-19T19:42:06.111Z,5.20
2018-06-19T19:44:38.988Z,4.33
2018-06-19T19:48:17.287Z,7.77
2018-06-19T19:50:50.431Z,3.47
2018-06-19T19:53:26.057Z,6.70
2018-06-19T19:56:06.634Z,6.37
2018-06-19T19:58:49.133Z,6.90
2018-06-19T20:01:26.561Z,6.83
2018-06-19T20:03:59.913Z,6.63
2018-06-19T20:06:33.655Z,5.40
2018-06-19T20:09:08.514Z,3.80
2018-06-19T20:14:30.482Z,7.63
2018-06-19T20:17:12.064Z,7.70
2018-06-19T20:19:51.013Z,4.87
2018-06-19T20:22:26.345Z,6.20
2018-06-19T20:25:00.385Z,9.10
2018-06-19T20:27:34.175Z,4.37
2018-06-19T20:30:07.262Z,7.30
2018-06-19T20:32:40.328Z,8.37
2018-06-19T20:35:19.428Z,3.90
2018-06-19T20:37:52.733Z,7.37
2018-06-19T20:40:26.096Z,5.07
2018-06-19T20:43:00.128Z,7.93
2018-06-19T20:45:34.253Z,7.33
2018-06-19T20:48:08.349Z,7.50
2018-06-19T20:50:42.095Z,4.60
2018-06-19T20:53:15.727Z,4.83
2018-06-19T20:55:48.983Z,5.87
2018-06-19T20:58:21.236Z,5.43
2018-06-19T21:00:54.584Z,5.37
2018-06-19T21:03:27.843Z,4.57
2018-06-19T21:06:00.496Z,6.57
2018-06-19T21:08:41.036Z,4.00
2018-06-19T21:11:15.091Z,3.50
2018-06-19T21:13:47.691Z,5.10
2018-06-19T21:16:21.330Z,3.87
2018-06-19T21:18:55.941Z,4.30
2018-06-19T21:21:29.084Z,4.30
2018-06-19T21:24:01.125Z,4.07
2018-06-19T21:26:33.969Z,5.97
2018-06-19T21:29:06.668Z,5.27
2018-06-19T21:31:39.051Z,5.73
2018-06-19T21:34:12.146Z,4.03
2018-06-19T21:36:44.999Z,6.33
2018-06-19T21:39:16.883Z,5.17
2018-06-19T21:41:50.092Z,4.70
2018-06-19T21:44:23.300Z,7.70
2018-06-19T21:46:56.322Z,7.10
2018-06-19T21:49:28.214Z,8.83
2018-06-19T21:52:00.999Z,7.77
2018-06-19T21:54:35.304Z,9.93
2018-06-19T21:57:06.997Z,4.57
2018-06-19T21:59:38.586Z,11.87
2018-06-19T22:02:11.246Z,7.43
2018-06-19T22:04:44.449Z,4.63
2018-06-19T22:07:17.524Z,5.17
2018-06-19T22:09:48.801Z,6.63
2018-06-19T22:12:20.159Z,4.43
2018-06-19T22:14:51.240Z,7.30
2018-06-19T22:17:22.531Z,7.93
2018-06-19T22:19:54.238Z,8.03
2018-06-19T22:22:26.340Z,7.23
2018-06-19T22:24:58.431Z,7.80
2018-06-19T22:27:29.622Z,6.60
2018-06-19T22:30:00.795Z,6.30
2018-06-19T22:32:31.735Z,4.17
2018-06-19T22:35:03.031Z,5.40
2018-06-19T22:37:34.856Z,5.20
2018-06-19T22:40:06.730Z,6.03
2018-06-19T22:42:37.938Z,6.73
2018-06-19T22:45:09.391Z,12.10
2018-06-19T22:47:42.884Z,6.70
2018-06-19T22:50:14.103Z,5.67
2018-06-19T22:52:45.393Z,5.93
2018-06-19T22:55:17.877Z,8.57
2018-06-19T22:57:49.227Z,5.37
2018-06-19T23:00:22.000Z,4.50
2018-06-19T23:02:56.950Z,4.83
2018-06-19T23:05:28.335Z,10.07
2018-06-19T23:07:59.107Z,4.03
2018-06-19T23:10:30.598Z,7.97
2018-06-19T23:13:03.169Z,6.73
2018-06-19T23:15:34.910Z,7.63
2018-06-19T23:18:06.755Z,6.37
2018-06-19T23:20:37.990Z,6.13
2018-06-19T23:23:09.489Z,5.60
2018-06-19T23:25:40.759Z,5.70
2018-06-19T23:28:12.239Z,6.87
2018-06-19T23:30:43.701Z,7.13
2018-06-19T23:33:14.795Z,5.57
2018-06-19T23:35:46.024Z,4.47
2018-06-19T23:38:17.304Z,5.50
2018-06-19T23:40:48.354Z,6.43
2018-06-19T23:43:20.993Z,4.50
2018-06-19T23:45:52.297Z,4.87
2018-06-19T23:48:23.166Z,6.10
2018-06-19T23:50:54.424Z,6.23
2018-06-19T23:53:25.660Z,6.20
2018-06-19T23:55:56.375Z,6.97
2018-06-19T23:58:27.568Z,6.33
